Terminal Aerodrome Forecast
Issued by NWS

Home | Current Version | Previous Version | Text Only | Print | Product List | Glossary On
Versions: 1 2 3 4 5 6 7 8 9 10 11 12 13 14 15 16 17 18 19 20 21 22 23 24 25
000
FTUS45 KLKN 301120
TAFTPH
TAF
KTPH 301120Z 3012/3112 34008KT P6SM SCT090 BKN110
     FM301700 32030G40KT 5SM BLDU VCSH SCT060 BKN090
     FM302000 33050G60KT 3SM BLDU VCSH SCT070
     FM310300 34040G50KT 4SM BLDU SCT070
     FM310600 32035G45KT 5SM BLDU BKN090=

USA.gov is the U.S. government's official web portal to all federal, state and local government web resources and services.